Dupage Airport
KDPA : now visible

Airfield :











YOU CAN JOIN US ON...

 
LOGIN :

Register | Disclaimer

   EN    FR    IT 

 









Legend :    VFR   Marginal VFR   IFR   Intensive IFR   Very Intensive IFR
Visi :
Ceiling :
>= 8 km
>= 3000ft
5 to 8 km
1000 to 3000 ft
1500m to 5 km
500 to 1000 ft
800 to 1500m
200 to 500 ft
< 800m
< 200 ft
Symbols :   Thunderstorms  Fog  Heavy snow  Heavy precipitations  Wind > 20 kt






- Airport Elevation : 759 ft


KDPA - Dupage

CURRENT METAR :
  • 150352Z 15004KT 10SM CLR 06/02 A3003 RMK AO2 SLP172 T00560022

EXPIRED METARs :
  • 150252Z 00000KT 10SM CLR 05/02 A3003 RMK AO2 SLP174 T00500022 58002
  • 150152Z 00000KT 10SM CLR 07/03 A3004 RMK AO2 SLP176 T00670028

TAF KDPA
Valid from the 15 at 03:00 until the 16 at 00:00 UTC


150313Z 1503/1524 16004KT P6SM SCT250
FM151200 16011KT P6SM SCT050 BKN120
FM151400 19012G20KT P6SM SCT020 OVC035
TEMPO 1514/1517 5SM -SHRA BKN020
FM151700 21012G22KT P6SM BKN015
FM152200 27012KT P6SM SCT020 BKN050



MET'MAP, your aeronautical weather chart ! - Copyright ORBIFLY December 2007 - Disclaimer

ORBIFLY MET'MAP TEAM :

Programming & Development : Alexandra Zaïnal
Concept & Development : Baudouin d'Aumeries
Co-Development & Prog : Marc-Olivier Méhu
Technical & hardware support : Manuel Goepfert

Contact : metmap@orbifly.com




SOURCES & CREDITS :

   NOAA       Earth
Advisory